createdAt,value
2023-03-06T00:02:07.939Z,3.63
2023-03-06T00:04:35.648Z,3.10
2023-03-06T00:07:04.735Z,3.70
2023-03-06T00:09:32.396Z,3.70
2023-03-06T00:12:00.031Z,3.90
2023-03-06T00:14:27.790Z,4.53
2023-03-06T00:16:56.825Z,4.13
2023-03-06T00:19:24.904Z,3.50
2023-03-06T00:21:52.531Z,3.40
2023-03-06T00:24:21.604Z,3.50
2023-03-06T00:26:49.272Z,3.80
2023-03-06T00:29:17.009Z,4.13
2023-03-06T00:31:47.758Z,3.80
2023-03-06T00:34:15.822Z,5.40
2023-03-06T00:36:43.488Z,3.63
2023-03-06T00:39:11.112Z,3.43
2023-03-06T00:41:40.454Z,3.43
2023-03-06T00:44:08.260Z,3.70
2023-03-06T00:46:36.041Z,4.00
2023-03-06T00:49:03.893Z,4.33
2023-03-06T00:51:31.542Z,3.90
2023-03-06T00:53:59.227Z,4.30
2023-03-06T00:56:26.891Z,4.37
2023-03-06T00:58:55.862Z,4.77
2023-03-06T01:01:23.936Z,4.63
2023-03-06T01:03:51.577Z,5.03
2023-03-06T01:06:19.221Z,5.40
2023-03-06T01:08:47.016Z,5.63
2023-03-06T01:11:14.748Z,6.03
2023-03-06T01:13:42.394Z,5.70
2023-03-06T01:16:13.534Z,5.87
2023-03-06T01:18:41.827Z,6.47
2023-03-06T01:21:09.838Z,6.53
2023-03-06T01:23:37.533Z,6.47
2023-03-06T01:26:05.835Z,6.33
2023-03-06T01:28:35.116Z,7.30
2023-03-06T01:31:02.876Z,7.33
2023-03-06T01:33:31.972Z,6.30
2023-03-06T01:35:59.713Z,6.83
2023-03-06T01:38:27.371Z,6.63
2023-03-06T01:40:54.987Z,6.70
2023-03-06T01:43:31.361Z,6.80
2023-03-06T01:46:38.675Z,7.30
2023-03-06T01:49:12.764Z,7.43
2023-03-06T01:51:42.452Z,7.97
2023-03-06T01:54:14.292Z,7.80
2023-03-06T01:56:44.140Z,7.90
2023-03-06T01:59:11.928Z,7.03
2023-03-06T02:01:40.436Z,8.23
2023-03-06T02:04:10.152Z,7.53
2023-03-06T02:06:42.275Z,8.93
2023-03-06T02:09:10.648Z,7.30
2023-03-06T02:11:38.542Z,8.50
2023-03-06T02:14:06.396Z,8.60
2023-03-06T02:16:34.916Z,9.17
2023-03-06T02:19:03.132Z,9.77
2023-03-06T02:21:34.560Z,10.07
2023-03-06T02:24:16.664Z,7.87
2023-03-06T02:26:46.508Z,8.83
2023-03-06T02:29:15.937Z,8.90
2023-03-06T02:31:43.608Z,9.57
2023-03-06T02:34:40.993Z,9.07
2023-03-06T02:37:10.956Z,9.80
2023-03-06T02:39:41.967Z,10.17
2023-03-06T02:42:11.095Z,9.47
2023-03-06T02:44:38.781Z,9.13
2023-03-06T02:47:07.807Z,11.43
2023-03-06T02:49:35.504Z,9.90
2023-03-06T02:52:03.236Z,9.70
2023-03-06T02:54:31.009Z,10.23
2023-03-06T02:56:58.711Z,9.70
2023-03-06T02:59:27.887Z,9.20
2023-03-06T03:01:55.592Z,9.93
2023-03-06T03:04:23.489Z,9.40
2023-03-06T03:06:51.197Z,9.40
2023-03-06T03:09:18.868Z,9.00
2023-03-06T03:11:46.543Z,8.00
2023-03-06T03:14:14.204Z,8.20
2023-03-06T03:16:43.241Z,8.10
2023-03-06T03:19:10.926Z,8.67
2023-03-06T03:21:38.902Z,7.97
2023-03-06T03:24:07.223Z,8.33
2023-03-06T03:26:34.899Z,8.10
2023-03-06T03:29:04.649Z,8.40
2023-03-06T03:31:32.636Z,7.67
2023-03-06T03:34:02.342Z,7.00
2023-03-06T03:36:30.086Z,8.07
2023-03-06T03:38:57.812Z,7.60
2023-03-06T03:41:25.448Z,8.33
2023-03-06T03:43:53.163Z,8.17
2023-03-06T03:46:21.650Z,8.27
2023-03-06T03:48:49.480Z,8.70
2023-03-06T03:51:18.806Z,7.90
2023-03-06T03:53:46.606Z,7.63
2023-03-06T03:56:14.547Z,8.20
2023-03-06T03:58:42.217Z,8.07
2023-03-06T04:01:09.899Z,8.20
2023-03-06T04:03:37.681Z,8.00
2023-03-06T04:06:05.708Z,7.93
2023-03-06T04:08:34.763Z,8.20
2023-03-06T04:11:02.904Z,8.03
2023-03-06T04:13:30.783Z,8.20
2023-03-06T04:15:59.679Z,7.70
2023-03-06T04:18:28.474Z,8.77
2023-03-06T04:20:56.338Z,8.13
2023-03-06T04:23:24.296Z,7.57
2023-03-06T04:25:53.372Z,8.17
2023-03-06T04:28:21.381Z,7.20
2023-03-06T04:30:49.049Z,7.30
2023-03-06T04:33:16.761Z,8.30
2023-03-06T04:35:44.497Z,8.23
2023-03-06T04:38:12.187Z,8.73
2023-03-06T04:40:39.876Z,8.00
2023-03-06T04:43:09.103Z,8.07
2023-03-06T04:45:36.962Z,8.23
2023-03-06T04:48:05.149Z,7.97
2023-03-06T04:50:32.966Z,7.67
2023-03-06T04:53:01.508Z,7.63
2023-03-06T04:55:29.912Z,8.20
2023-03-06T04:57:59.000Z,8.00
2023-03-06T05:00:31.402Z,7.83
2023-03-06T05:02:59.602Z,8.87
2023-03-06T05:05:27.924Z,9.20
2023-03-06T05:07:55.789Z,7.97
2023-03-06T05:10:23.560Z,8.97
2023-03-06T05:12:51.285Z,9.23
2023-03-06T05:15:19.338Z,9.53
2023-03-06T05:17:48.547Z,9.20
2023-03-06T05:20:18.193Z,9.50
2023-03-06T05:22:45.857Z,11.00
2023-03-06T05:25:13.833Z,9.67
2023-03-06T05:27:42.049Z,10.37
2023-03-06T05:30:13.584Z,9.87
2023-03-06T05:32:41.655Z,10.40
2023-03-06T05:35:18.600Z,10.97
2023-03-06T05:37:46.675Z,10.80
2023-03-06T05:40:15.241Z,11.47
2023-03-06T05:42:43.299Z,12.47
2023-03-06T05:45:12.248Z,11.70
2023-03-06T05:47:39.904Z,12.90
2023-03-06T05:50:10.348Z,13.20
2023-03-06T05:52:39.968Z,13.63
2023-03-06T05:55:09.217Z,13.97
2023-03-06T05:57:36.926Z,14.77
2023-03-06T06:00:05.518Z,14.80
2023-03-06T06:02:33.254Z,13.93
2023-03-06T06:05:02.408Z,12.83
2023-03-06T06:07:30.187Z,15.13
2023-03-06T06:09:59.188Z,14.40
2023-03-06T06:12:27.291Z,14.87
2023-03-06T06:14:55.040Z,14.93
2023-03-06T06:17:22.860Z,14.90
2023-03-06T06:19:50.509Z,16.67
2023-03-06T06:22:18.213Z,14.10
2023-03-06T06:24:45.910Z,16.27
2023-03-06T06:27:14.955Z,16.10
2023-03-06T06:29:42.595Z,15.90
2023-03-06T06:32:10.308Z,14.00
2023-03-06T06:34:38.002Z,14.00
2023-03-06T06:37:05.764Z,14.33
2023-03-06T06:39:33.467Z,12.67
2023-03-06T06:42:26.135Z,11.30
2023-03-06T06:44:51.468Z,9.63
2023-03-06T06:47:24.632Z,10.13
2023-03-06T06:49:53.754Z,13.27
2023-03-06T06:52:21.746Z,12.97
2023-03-06T06:54:49.525Z,11.90
2023-03-06T06:57:17.630Z,11.93
2023-03-06T06:59:45.392Z,10.63
2023-03-06T07:02:15.841Z,12.53
2023-03-06T07:05:00.387Z,11.47
2023-03-06T07:07:30.805Z,11.73
2023-03-06T07:09:58.540Z,11.83
2023-03-06T07:12:26.264Z,10.93
2023-03-06T07:14:53.985Z,9.30
2023-03-06T07:17:22.998Z,10.37
2023-03-06T07:19:51.258Z,9.20
2023-03-06T07:22:19.020Z,9.77
2023-03-06T07:24:46.844Z,9.27
2023-03-06T07:27:14.529Z,8.40
2023-03-06T07:29:44.031Z,8.77
2023-03-06T07:32:11.777Z,8.20
2023-03-06T07:34:41.042Z,7.40
2023-03-06T07:37:08.760Z,7.23
2023-03-06T07:39:36.422Z,7.23
2023-03-06T07:42:04.306Z,7.33
2023-03-06T07:44:32.758Z,8.20
2023-03-06T07:47:00.416Z,7.43
2023-03-06T07:49:28.061Z,7.87
2023-03-06T07:51:57.095Z,7.77
2023-03-06T07:54:24.849Z,8.30
2023-03-06T07:56:53.082Z,7.37
2023-03-06T07:59:20.816Z,6.20
2023-03-06T08:01:48.529Z,5.87
2023-03-06T08:04:16.193Z,4.43
2023-03-06T08:06:43.866Z,3.90
2023-03-06T08:09:12.917Z,4.40
2023-03-06T08:11:40.638Z,4.13
2023-03-06T08:14:08.370Z,5.23
2023-03-06T08:16:36.222Z,7.03
2023-03-06T08:19:03.966Z,7.13
2023-03-06T08:21:31.683Z,6.37
2023-03-06T08:23:59.718Z,6.63
2023-03-06T08:26:31.046Z,7.57
2023-03-06T08:29:00.698Z,7.07
2023-03-06T08:31:30.670Z,5.80
2023-03-06T08:34:00.317Z,6.20
2023-03-06T08:36:28.162Z,5.17
2023-03-06T08:38:55.947Z,3.20
2023-03-06T08:41:23.797Z,3.27
2023-03-06T08:43:53.338Z,3.60
2023-03-06T08:46:22.208Z,3.53
2023-03-06T08:48:50.222Z,4.00
2023-03-06T08:51:18.690Z,3.80
2023-03-06T08:53:46.991Z,2.73
2023-03-06T08:56:18.720Z,2.73
2023-03-06T08:58:47.033Z,1.60
2023-03-06T09:01:18.554Z,1.53
2023-03-06T09:03:46.797Z,1.30
2023-03-06T09:06:15.090Z,1.30
2023-03-06T09:08:44.454Z,1.53
2023-03-06T09:11:12.676Z,1.70
2023-03-06T09:13:40.694Z,1.33
2023-03-06T09:16:08.861Z,1.67
2023-03-06T09:18:38.245Z,1.70
2023-03-06T09:21:06.904Z,1.87
2023-03-06T09:23:35.265Z,1.17
2023-03-06T09:26:03.140Z,2.00
2023-03-06T09:28:31.192Z,1.57
2023-03-06T09:30:59.243Z,1.00
2023-03-06T09:33:28.758Z,1.37
2023-03-06T09:35:58.600Z,1.20
2023-03-06T09:38:27.729Z,1.20
2023-03-06T09:43:37.014Z,1.00
2023-03-06T09:46:10.616Z,1.67
2023-03-06T09:48:42.914Z,1.33
2023-03-06T09:51:15.869Z,1.23
2023-03-06T09:53:54.384Z,1.10
2023-03-06T09:56:23.885Z,1.30
2023-03-06T09:58:55.248Z,0.80
2023-03-06T10:01:24.886Z,1.27
2023-03-06T10:03:55.890Z,1.17
2023-03-06T10:06:27.476Z,0.90
2023-03-06T10:08:59.388Z,0.93
2023-03-06T10:11:30.956Z,1.00
2023-03-06T10:14:09.225Z,1.20
2023-03-06T10:16:37.029Z,1.20
2023-03-06T10:19:08.353Z,0.80
2023-03-06T10:21:44.622Z,0.90
2023-03-06T10:24:21.436Z,1.03
2023-03-06T10:26:53.693Z,1.23
2023-03-06T10:29:39.321Z,1.20
2023-03-06T10:32:13.735Z,0.90
2023-03-06T10:34:42.861Z,1.20
2023-03-06T10:37:19.515Z,0.70
2023-03-06T10:39:47.487Z,0.97
2023-03-06T10:42:15.118Z,1.00
2023-03-06T10:44:43.345Z,1.13
2023-03-06T10:47:29.952Z,0.90
2023-03-06T10:49:59.490Z,1.40
2023-03-06T10:52:31.027Z,1.10
2023-03-06T10:55:23.587Z,1.47
2023-03-06T10:57:51.341Z,1.20
2023-03-06T11:00:28.937Z,1.30
2023-03-06T11:03:14.752Z,1.10
2023-03-06T11:05:42.514Z,1.40
2023-03-06T11:08:21.860Z,1.00
2023-03-06T11:10:57.101Z,1.50
2023-03-06T11:13:27.368Z,0.90
2023-03-06T11:16:05.119Z,1.20
2023-03-06T11:18:37.571Z,0.90
2023-03-06T11:21:09.056Z,0.90
2023-03-06T11:23:42.486Z,1.00
2023-03-06T11:26:31.097Z,0.90
2023-03-06T11:29:07.614Z,0.97
2023-03-06T11:31:39.311Z,0.80
2023-03-06T11:34:14.436Z,0.93
2023-03-06T11:36:47.604Z,1.20
2023-03-06T11:39:23.908Z,1.17
2023-03-06T11:41:58.934Z,0.60
2023-03-06T11:44:36.868Z,0.63
2023-03-06T11:47:10.265Z,0.77
2023-03-06T11:49:42.084Z,0.73
2023-03-06T11:52:18.990Z,0.90
2023-03-06T11:54:53.120Z,0.70
2023-03-06T11:57:24.096Z,1.30
2023-03-06T12:00:00.018Z,0.80
2023-03-06T12:02:40.654Z,0.90
2023-03-06T12:05:22.615Z,0.70
2023-03-06T12:07:55.896Z,1.20
2023-03-06T12:10:27.744Z,0.87
2023-03-06T12:13:13.367Z,0.73
2023-03-06T12:15:53.536Z,1.03
2023-03-06T12:18:34.264Z,0.90
2023-03-06T12:21:05.686Z,0.80
2023-03-06T12:24:01.821Z,1.00
2023-03-06T12:26:55.973Z,0.90
2023-03-06T12:29:34.525Z,0.80
2023-03-06T12:32:14.130Z,1.43
2023-03-06T12:35:01.509Z,0.97
2023-03-06T12:37:35.468Z,0.70
2023-03-06T12:40:20.760Z,0.90
2023-03-06T12:43:03.173Z,0.80
2023-03-06T12:45:32.085Z,1.00
2023-03-06T12:48:00.333Z,0.87
2023-03-06T12:50:29.690Z,0.87
2023-03-06T12:52:59.277Z,1.30
2023-03-06T12:55:27.784Z,1.10
2023-03-06T12:57:56.855Z,0.90
2023-03-06T13:01:04.668Z,1.17
2023-03-06T13:03:39.378Z,0.90
2023-03-06T13:06:22.737Z,0.93
2023-03-06T13:09:13.158Z,1.03
2023-03-06T13:12:03.761Z,0.87
2023-03-06T13:14:54.810Z,1.07
2023-03-06T13:17:28.068Z,0.90
2023-03-06T13:20:35.619Z,0.97
2023-03-06T13:23:43.105Z,0.70
2023-03-06T13:26:12.108Z,0.93
2023-03-06T13:28:44.988Z,1.30
2023-03-06T13:31:26.376Z,0.80
2023-03-06T13:33:59.805Z,0.80
2023-03-06T13:36:29.917Z,1.37
2023-03-06T13:39:08.593Z,1.40
2023-03-06T13:41:58.313Z,1.23
2023-03-06T13:44:47.344Z,1.03
2023-03-06T13:48:01.411Z,0.97
2023-03-06T13:50:34.540Z,1.13
2023-03-06T13:53:32.817Z,1.10
2023-03-06T13:56:37.098Z,1.10
2023-03-06T13:59:18.376Z,0.87
2023-03-06T14:01:53.842Z,1.00
2023-03-06T14:04:38.668Z,1.10
2023-03-06T14:07:23.008Z,1.23
2023-03-06T14:09:58.818Z,0.80
2023-03-06T14:12:29.967Z,0.80
2023-03-06T14:15:00.500Z,0.90
2023-03-06T14:17:30.548Z,0.97
2023-03-06T14:20:03.255Z,0.93
2023-03-06T14:22:30.969Z,0.70
2023-03-06T14:25:01.787Z,0.90
2023-03-06T14:27:43.467Z,1.20
2023-03-06T14:30:16.101Z,0.80
2023-03-06T14:32:44.299Z,1.20
2023-03-06T14:35:27.289Z,0.80
2023-03-06T14:37:56.667Z,1.00
2023-03-06T14:40:31.990Z,1.10
2023-03-06T14:43:22.698Z,1.00
2023-03-06T14:45:52.028Z,1.00
2023-03-06T14:48:19.883Z,0.93
2023-03-06T14:50:53.618Z,0.90
2023-03-06T14:53:25.184Z,0.87
2023-03-06T14:55:54.272Z,1.03
2023-03-06T14:58:27.450Z,1.07
2023-03-06T15:00:56.572Z,0.80
2023-03-06T15:03:26.772Z,0.90
2023-03-06T15:05:56.386Z,0.80
2023-03-06T15:08:27.621Z,0.70
2023-03-06T15:10:56.595Z,0.80
2023-03-06T15:13:26.626Z,0.80
2023-03-06T15:15:59.807Z,0.80
2023-03-06T15:18:29.813Z,0.90
2023-03-06T15:21:09.808Z,1.00
2023-03-06T15:23:39.330Z,0.90
2023-03-06T15:26:31.410Z,0.73
2023-03-06T15:29:08.900Z,1.00
2023-03-06T15:31:38.463Z,1.13
2023-03-06T15:34:23.322Z,0.70
2023-03-06T15:36:55.231Z,1.00
2023-03-06T15:39:31.263Z,1.20
2023-03-06T15:41:59.590Z,32.10
2023-03-06T15:44:27.705Z,50.80
2023-03-06T15:47:07.724Z,2.40
2023-03-06T15:49:37.901Z,1.10
2023-03-06T15:52:07.432Z,1.17
2023-03-06T15:54:35.402Z,1.10
2023-03-06T15:57:04.347Z,0.93
2023-03-06T15:59:33.225Z,1.60
2023-03-06T16:02:04.348Z,1.13
2023-03-06T16:04:32.056Z,0.93
2023-03-06T16:06:59.740Z,0.90
2023-03-06T16:09:28.764Z,1.30
2023-03-06T16:11:56.455Z,1.17
2023-03-06T16:14:24.468Z,1.17
2023-03-06T16:16:54.049Z,1.20
2023-03-06T16:19:26.238Z,1.30
2023-03-06T16:21:54.996Z,1.17
2023-03-06T16:24:22.719Z,1.60
2023-03-06T16:26:53.345Z,1.50
2023-03-06T16:29:22.494Z,1.67
2023-03-06T16:31:50.210Z,1.60
2023-03-06T16:34:19.822Z,1.30
2023-03-06T16:36:48.825Z,1.50
2023-03-06T16:39:17.570Z,1.43
2023-03-06T16:41:46.105Z,1.43
2023-03-06T16:44:15.196Z,1.50
2023-03-06T16:46:45.818Z,1.20
2023-03-06T16:49:16.860Z,1.20
2023-03-06T16:51:45.110Z,1.30
2023-03-06T16:54:12.969Z,1.30
2023-03-06T16:56:40.705Z,1.27
2023-03-06T16:59:08.836Z,1.10
2023-03-06T17:01:38.582Z,1.90
2023-03-06T17:04:06.552Z,2.47
2023-03-06T17:06:34.202Z,3.20
2023-03-06T17:09:01.948Z,3.23
2023-03-06T17:11:29.684Z,5.33
2023-03-06T17:13:57.387Z,8.60
2023-03-06T17:16:25.018Z,6.17
2023-03-06T17:18:58.133Z,12.97
2023-03-06T17:21:27.044Z,6.63
2023-03-06T17:23:54.756Z,7.33
2023-03-06T17:26:22.500Z,6.53
2023-03-06T17:28:50.188Z,6.93
2023-03-06T17:31:21.689Z,7.20
2023-03-06T17:33:49.631Z,7.53
2023-03-06T17:36:19.261Z,7.13
2023-03-06T17:38:47.238Z,7.07
2023-03-06T17:41:15.122Z,7.33
2023-03-06T17:43:43.283Z,7.00
2023-03-06T17:46:13.425Z,7.73
2023-03-06T17:48:41.537Z,7.87
2023-03-06T17:51:09.933Z,8.00
2023-03-06T17:53:39.483Z,7.47
2023-03-06T17:56:09.626Z,7.53
2023-03-06T17:58:37.408Z,7.70
2023-03-06T18:01:11.140Z,7.97
2023-03-06T18:03:38.854Z,7.87
2023-03-06T18:06:09.387Z,7.93
2023-03-06T18:08:37.624Z,8.00
2023-03-06T18:11:08.386Z,9.37
2023-03-06T18:13:37.497Z,9.23
2023-03-06T18:16:06.246Z,9.00
2023-03-06T18:18:34.055Z,9.07
2023-03-06T18:21:04.606Z,9.63
2023-03-06T18:23:32.326Z,8.93
2023-03-06T18:26:11.797Z,9.57
2023-03-06T18:28:42.464Z,9.87
2023-03-06T18:31:15.884Z,10.87
2023-03-06T18:33:43.625Z,9.77
2023-03-06T18:36:11.441Z,11.13
2023-03-06T18:38:40.126Z,11.07
2023-03-06T18:41:08.427Z,12.17
2023-03-06T18:43:38.338Z,12.20
2023-03-06T18:46:07.051Z,13.50
2023-03-06T18:48:34.906Z,13.87
2023-03-06T18:51:05.473Z,14.07
2023-03-06T18:53:33.190Z,14.67
2023-03-06T18:56:00.962Z,16.10
2023-03-06T18:58:28.976Z,15.60
2023-03-06T19:00:59.711Z,17.90
2023-03-06T19:03:27.496Z,17.17
2023-03-06T19:05:55.787Z,18.27
2023-03-06T19:08:23.774Z,19.67
2023-03-06T19:10:51.790Z,19.47
2023-03-06T19:13:19.498Z,19.87
2023-03-06T19:15:48.985Z,19.23
2023-03-06T19:18:18.978Z,19.97
2023-03-06T19:20:46.663Z,18.97
2023-03-06T19:23:14.516Z,21.97
2023-03-06T19:25:42.213Z,21.13
2023-03-06T19:28:09.898Z,21.30
2023-03-06T19:30:40.867Z,23.07
2023-03-06T19:33:08.546Z,25.83
2023-03-06T19:35:37.656Z,23.80
2023-03-06T19:38:05.353Z,24.73
2023-03-06T19:40:33.009Z,23.77
2023-03-06T19:43:00.708Z,23.97
2023-03-06T19:45:28.463Z,23.67
2023-03-06T19:48:00.797Z,25.53
2023-03-06T19:50:29.600Z,25.93
2023-03-06T19:52:59.453Z,26.57
2023-03-06T19:55:28.645Z,27.33
2023-03-06T19:57:56.336Z,27.33
2023-03-06T20:00:24.168Z,27.63
2023-03-06T20:02:51.936Z,30.50
2023-03-06T20:05:20.117Z,28.83
2023-03-06T20:07:47.810Z,30.17
2023-03-06T20:10:17.121Z,29.07
2023-03-06T20:12:45.183Z,29.40
2023-03-06T20:15:13.072Z,30.50
2023-03-06T20:17:41.095Z,29.03
2023-03-06T20:20:10.915Z,31.87
2023-03-06T20:22:38.656Z,31.97
2023-03-06T20:25:07.154Z,33.23
2023-03-06T20:27:36.261Z,33.50
2023-03-06T20:30:06.435Z,33.53
2023-03-06T20:32:35.446Z,33.37
2023-03-06T20:35:03.522Z,33.50
2023-03-06T20:37:31.307Z,35.37
2023-03-06T20:39:59.079Z,35.83
2023-03-06T20:42:26.806Z,35.50
2023-03-06T20:44:55.967Z,35.00
2023-03-06T20:47:23.616Z,34.40
2023-03-06T20:49:51.335Z,37.17
2023-03-06T20:52:19.031Z,36.60
2023-03-06T20:54:47.069Z,34.43
2023-03-06T20:57:14.741Z,34.80
2023-03-06T20:59:42.497Z,34.43
2023-03-06T21:02:14.792Z,32.43
2023-03-06T21:04:42.585Z,34.87
2023-03-06T21:07:10.345Z,34.80
2023-03-06T21:09:39.582Z,35.83
2023-03-06T21:12:07.497Z,36.77
2023-03-06T21:14:35.361Z,31.50
2023-03-06T21:17:03.092Z,33.77
2023-03-06T21:19:32.161Z,33.33
2023-03-06T21:21:59.821Z,34.30
2023-03-06T21:24:27.487Z,36.23
2023-03-06T21:26:55.329Z,33.30
2023-03-06T21:29:22.999Z,35.60
2023-03-06T21:31:50.688Z,32.47
2023-03-06T21:34:18.418Z,33.80
2023-03-06T21:36:47.426Z,32.27
2023-03-06T21:39:15.103Z,33.40
2023-03-06T21:41:42.780Z,33.60
2023-03-06T21:44:11.589Z,28.63
2023-03-06T21:46:39.353Z,32.20
2023-03-06T21:49:07.056Z,33.97
2023-03-06T21:51:34.933Z,31.27
2023-03-06T21:54:04.407Z,33.03
2023-03-06T21:56:33.430Z,30.27
2023-03-06T21:59:01.366Z,31.00
2023-03-06T22:01:30.133Z,29.90
2023-03-06T22:03:58.462Z,30.57
2023-03-06T22:06:27.329Z,30.23
2023-03-06T22:08:56.448Z,30.87
2023-03-06T22:11:26.834Z,30.53
2023-03-06T22:13:54.531Z,30.27
2023-03-06T22:16:22.401Z,29.60
2023-03-06T22:18:51.733Z,26.77
2023-03-06T22:21:21.357Z,29.27
2023-03-06T22:23:50.269Z,28.40
2023-03-06T22:26:17.922Z,25.93
2023-03-06T22:28:47.412Z,25.90
2023-03-06T22:31:17.155Z,27.07
2023-03-06T22:33:45.078Z,27.13
2023-03-06T22:36:14.525Z,26.53
2023-03-06T22:38:43.370Z,26.53
2023-03-06T22:41:12.293Z,25.47
2023-03-06T22:43:40.248Z,26.17
2023-03-06T22:46:10.873Z,24.13
2023-03-06T22:48:38.685Z,25.53
2023-03-06T22:51:07.963Z,24.87
2023-03-06T22:53:35.777Z,23.53
2023-03-06T22:56:05.364Z,24.33
2023-03-06T22:58:36.972Z,23.70
2023-03-06T23:01:06.877Z,25.97
2023-03-06T23:03:36.412Z,24.40
2023-03-06T23:06:07.032Z,22.73
2023-03-06T23:08:34.705Z,23.10
2023-03-06T23:11:02.452Z,22.33
2023-03-06T23:13:30.166Z,23.00
2023-03-06T23:15:57.925Z,24.87
2023-03-06T23:18:29.003Z,22.83
2023-03-06T23:20:58.853Z,23.40
2023-03-06T23:23:26.623Z,23.87
2023-03-06T23:25:54.479Z,23.10
2023-03-06T23:28:22.191Z,23.97
2023-03-06T23:30:49.907Z,23.37
2023-03-06T23:33:17.668Z,22.03
2023-03-06T23:35:45.438Z,25.27
2023-03-06T23:38:14.551Z,22.23
2023-03-06T23:40:42.276Z,21.50
2023-03-06T23:43:09.980Z,20.87
2023-03-06T23:45:37.634Z,19.23
2023-03-06T23:48:07.090Z,22.63
2023-03-06T23:50:34.786Z,22.20
2023-03-06T23:53:02.526Z,23.07
2023-03-06T23:55:31.567Z,21.20
2023-03-06T23:57:59.218Z,22.17
